Time;durP1;ratioP1;P1;durP2;ratioP2;P2;SDS_P1;SDS_P2;PMS_P1;PMS_P2;Temp;Humidity;BMP_temperature;BMP_pressure;BME280_temperature;BME280_humidity;BME280_pressure;Samples;Min_cycle;Max_cycle;Signal;HPM_P1;HPM_P2
2023/10/23 00:01:53;;;;;;;9.93;6.82;;;9.00;99.90;;;8.88;100.00;99977.84;5014798;28;20107;-86
2023/10/23 00:04:19;;;;;;;13.13;7.60;;;9.00;99.90;;;8.78;100.00;99972.94;5021794;28;20026;-85
2023/10/23 00:06:45;;;;;;;10.70;6.70;;;8.90;99.90;;;8.78;100.00;99983.81;5015581;28;20432;-86
2023/10/23 00:09:14;;;;;;;13.35;8.45;;;8.90;99.90;;;8.88;100.00;99977.03;5037322;28;20084;-85
2023/10/23 00:11:39;;;;;;;14.70;8.63;;;9.00;99.90;;;8.89;100.00;99963.22;5018043;28;20420;-86
2023/10/23 00:14:05;;;;;;;13.18;8.52;;;9.00;99.90;;;8.88;100.00;99960.72;5017176;28;20040;-86
2023/10/23 00:16:31;;;;;;;13.10;8.00;;;9.00;99.90;;;8.83;100.00;99949.69;5027004;28;20050;-86
2023/10/23 00:18:57;;;;;;;14.02;8.95;;;9.00;99.90;;;8.75;100.00;99959.78;5013892;28;20045;-87
2023/10/23 00:21:22;;;;;;;14.48;8.35;;;8.90;99.90;;;8.68;100.00;99978.03;5020971;28;20045;-86
2023/10/23 00:23:49;;;;;;;13.70;7.65;;;8.80;99.90;;;8.65;100.00;99981.19;5019975;28;20037;-86
2023/10/23 00:26:15;;;;;;;14.07;8.20;;;8.70;99.90;;;8.58;100.00;99977.69;5015591;28;20026;-86
2023/10/23 00:28:48;;;;;;;13.55;8.55;;;8.70;99.90;;;8.54;100.00;99980.00;5025561;28;20389;-86
2023/10/23 00:31:14;;;;;;;14.95;8.27;;;8.70;99.90;;;8.58;100.00;99972.25;5015610;28;20038;-85
2023/10/23 00:33:40;;;;;;;15.20;8.80;;;8.70;99.90;;;8.47;100.00;99955.53;5018374;28;20044;-85
2023/10/23 00:36:06;;;;;;;17.27;9.40;;;8.70;99.90;;;8.59;100.00;99946.72;5018683;28;20041;-85
2023/10/23 00:38:31;;;;;;;15.85;9.60;;;8.70;99.90;;;8.65;100.00;99945.00;5013245;28;20030;-85
2023/10/23 00:40:57;;;;;;;15.10;9.80;;;8.80;99.90;;;8.69;100.00;99919.03;4995683;28;20092;-86
2023/10/23 00:43:24;;;;;;;17.90;9.85;;;8.90;99.90;;;8.88;100.00;99915.28;5018887;28;20026;-86
2023/10/23 00:46:15;;;;;;;17.60;10.15;;;9.00;99.90;;;9.00;100.00;99892.81;5013328;28;20048;-87
2023/10/23 00:48:42;;;;;;;18.48;10.48;;;9.20;99.90;;;9.04;100.00;99889.41;5019351;28;20069;-86
2023/10/23 00:51:14;;;;;;;16.13;10.10;;;9.20;99.90;;;8.94;100.00;99878.22;5038546;28;20043;-86
2023/10/23 00:53:42;;;;;;;21.77;11.70;;;9.20;99.90;;;9.00;100.00;99893.63;5020669;28;20382;-86
2023/10/23 00:56:10;;;;;;;19.50;11.40;;;9.20;99.90;;;8.98;100.00;99895.75;5040369;28;20048;-85
2023/10/23 00:58:41;;;;;;;17.50;11.05;;;9.10;99.90;;;9.01;100.00;99889.84;5024533;28;20045;-86
2023/10/23 01:01:11;;;;;;;16.80;10.07;;;9.10;99.90;;;9.01;100.00;99889.84;5015437;28;20046;-87
2023/10/23 01:03:38;;;;;;;14.98;9.63;;;9.20;99.90;;;9.02;100.00;99902.41;5017360;28;20160;-86
2023/10/23 01:06:05;;;;;;;15.68;10.27;;;9.10;99.90;;;9.01;100.00;99897.19;5019669;28;20052;-87
2023/10/23 01:08:32;;;;;;;17.05;9.65;;;9.10;99.90;;;8.98;100.00;99901.19;5020479;28;20046;-87
2023/10/23 01:10:59;;;;;;;18.88;10.43;;;9.10;99.90;;;8.97;100.00;99896.78;5024486;28;20030;-86
2023/10/23 01:13:26;;;;;;;19.88;10.48;;;9.10;99.90;;;9.00;100.00;99904.50;5025330;28;20034;-87
2023/10/23 01:15:53;;;;;;;19.27;10.15;;;9.10;99.90;;;9.02;100.00;99896.13;5013448;28;20042;-86
2023/10/23 01:18:19;;;;;;;17.00;9.80;;;9.10;99.90;;;9.10;100.00;99900.47;5017367;28;20113;-86
2023/10/23 01:20:46;;;;;;;16.45;10.35;;;9.20;99.90;;;9.14;100.00;99909.81;5039629;28;20517;-87
2023/10/23 01:23:12;;;;;;;15.77;9.52;;;9.20;99.90;;;9.19;100.00;99902.66;5014226;28;20038;-86
2023/10/23 01:25:38;;;;;;;16.65;9.77;;;9.20;99.90;;;9.26;100.00;99908.00;5014231;28;20429;-86
2023/10/23 01:28:04;;;;;;;15.38;9.77;;;9.30;99.90;;;9.30;100.00;99901.06;5018834;28;20053;-86
2023/10/23 01:30:32;;;;;;;17.40;10.15;;;9.40;99.90;;;9.34;100.00;99905.00;5012523;28;20022;-87
2023/10/23 01:32:58;;;;;;;22.75;10.93;;;9.40;99.90;;;9.50;100.00;99903.56;5017049;28;20478;-87
2023/10/23 01:35:24;;;;;;;20.55;11.30;;;9.60;99.90;;;9.63;100.00;99886.22;5014819;28;20021;-87
2023/10/23 01:37:51;;;;;;;21.75;12.35;;;9.70;99.90;;;9.76;100.00;99890.66;5023829;28;20096;-86
2023/10/23 01:40:20;;;;;;;24.05;13.25;;;9.80;99.90;;;9.92;100.00;99881.00;5025376;28;20029;-87
2023/10/23 01:42:46;;;;;;;21.60;12.00;;;10.00;99.90;;;10.03;100.00;99878.56;5021988;28;20038;-86
2023/10/23 01:45:13;;;;;;;29.02;13.13;;;10.10;99.90;;;10.10;100.00;99865.69;5020088;28;20041;-87
2023/10/23 01:47:41;;;;;;;22.13;12.43;;;10.10;99.90;;;10.05;100.00;99858.19;5041707;28;20034;-87
2023/10/23 01:50:08;;;;;;;19.27;11.45;;;10.20;99.90;;;10.17;100.00;99865.56;5025504;28;20042;-84
2023/10/23 01:52:33;;;;;;;21.45;11.93;;;10.20;99.90;;;10.23;100.00;99872.81;5013476;28;20034;-86
2023/10/23 01:54:59;;;;;;;18.77;11.20;;;10.30;99.90;;;10.27;100.00;99879.47;5012864;28;20046;-85
2023/10/23 01:57:27;;;;;;;19.02;11.35;;;10.30;99.90;;;10.28;100.00;99877.56;5012649;28;20579;-85
2023/10/23 01:59:53;;;;;;;15.57;10.48;;;10.30;99.90;;;10.36;100.00;99879.97;5034979;28;20038;-85
2023/10/23 02:02:19;;;;;;;17.73;11.35;;;10.30;99.90;;;10.39;100.00;99886.81;5017296;28;20034;-84
2023/10/23 02:04:46;;;;;;;16.95;10.57;;;10.40;99.90;;;10.42;100.00;99900.88;5013343;28;20026;-83
2023/10/23 02:07:12;;;;;;;18.13;10.80;;;10.40;99.90;;;10.47;100.00;99900.97;5023576;28;20065;-84
2023/10/23 02:09:41;;;;;;;15.20;10.07;;;10.40;99.90;;;10.47;100.00;99914.63;5017604;28;20044;-84
2023/10/23 02:12:07;;;;;;;13.93;9.30;;;10.40;99.90;;;10.52;100.00;99916.66;5018617;28;20074;-84
2023/10/23 02:14:32;;;;;;;14.70;9.50;;;10.50;99.90;;;10.50;100.00;99916.06;5020755;28;20060;-84
2023/10/23 02:16:59;;;;;;;14.63;9.93;;;10.50;99.90;;;10.52;100.00;99924.00;5012122;28;20050;-84
2023/10/23 02:19:24;;;;;;;12.82;8.95;;;10.50;99.90;;;10.49;100.00;99925.31;5018783;28;20500;-84
2023/10/23 02:21:50;;;;;;;13.48;9.02;;;10.50;99.90;;;10.49;100.00;99931.56;5018210;28;20037;-84
2023/10/23 02:24:17;;;;;;;15.50;8.93;;;10.50;99.90;;;10.48;100.00;99945.47;5012932;28;20439;-84
2023/10/23 02:26:43;;;;;;;12.07;9.13;;;10.50;99.90;;;10.44;100.00;99942.34;5013529;28;20485;-83
2023/10/23 02:29:09;;;;;;;14.00;8.95;;;10.50;99.90;;;10.46;100.00;99953.03;5019370;28;20037;-84
2023/10/23 02:31:36;;;;;;;13.32;8.80;;;10.50;99.90;;;10.43;100.00;99967.13;5013118;28;20551;-85
2023/10/23 02:34:03;;;;;;;12.65;8.63;;;10.40;99.90;;;10.43;100.00;99978.88;5028131;28;20426;-85
2023/10/23 02:36:28;;;;;;;13.02;8.50;;;10.40;99.90;;;10.47;100.00;99981.94;5019693;28;20501;-85
2023/10/23 02:38:54;;;;;;;11.55;7.72;;;10.40;99.90;;;10.44;100.00;99982.41;5018594;28;20046;-85
2023/10/23 02:41:21;;;;;;;14.77;8.90;;;10.50;99.90;;;10.44;100.00;99994.19;5013976;28;20032;-84
2023/10/23 02:43:49;;;;;;;12.60;8.57;;;10.40;99.90;;;10.47;100.00;100015.53;5028476;28;20042;-85
2023/10/23 02:46:15;;;;;;;12.65;8.93;;;10.40;99.90;;;10.44;100.00;100031.50;5012848;28;20034;-85
2023/10/23 02:48:41;;;;;;;13.45;9.00;;;10.40;99.90;;;10.39;100.00;100024.00;5028543;28;20084;-84
2023/10/23 02:51:08;;;;;;;14.75;8.60;;;10.40;99.90;;;10.41;100.00;100040.16;5012040;28;20030;-85
2023/10/23 02:53:35;;;;;;;14.93;8.43;;;10.40;99.90;;;10.45;100.00;100044.91;5012768;28;20063;-84
2023/10/23 02:56:00;;;;;;;14.05;8.63;;;10.40;99.90;;;10.41;100.00;100041.00;5022944;28;20405;-85
2023/10/23 02:58:27;;;;;;;14.23;8.48;;;10.40;99.90;;;10.48;100.00;100043.63;5013787;28;20034;-85
2023/10/23 03:00:53;;;;;;;14.18;8.05;;;10.40;99.90;;;10.47;100.00;100045.53;5013273;28;20393;-85
2023/10/23 03:03:19;;;;;;;12.52;7.72;;;10.50;99.90;;;10.45;100.00;100044.91;5011732;28;20045;-85
2023/10/23 03:05:45;;;;;;;10.98;7.63;;;10.50;99.90;;;10.53;100.00;100059.28;5017780;28;20042;-85
2023/10/23 03:08:10;;;;;;;11.73;7.40;;;10.50;99.90;;;10.53;100.00;100059.28;5017736;28;20049;-84
2023/10/23 03:10:36;;;;;;;12.88;7.60;;;10.50;99.90;;;10.53;100.00;100071.03;5021011;28;20029;-85
2023/10/23 03:13:02;;;;;;;12.80;7.75;;;10.50;99.90;;;10.50;100.00;100066.88;5042041;28;20029;-85
2023/10/23 03:15:28;;;;;;;12.50;8.05;;;10.50;99.90;;;10.52;100.00;100082.16;5032134;28;20042;-85
2023/10/23 03:17:54;;;;;;;11.05;7.70;;;10.50;99.90;;;10.54;100.00;100083.63;5022613;28;20065;-85
2023/10/23 03:20:20;;;;;;;9.65;7.22;;;10.50;99.90;;;10.58;100.00;100086.69;5016431;28;20038;-84
2023/10/23 03:22:45;;;;;;;11.75;7.95;;;10.50;99.90;;;10.60;100.00;100087.28;5023084;28;20042;-85
2023/10/23 03:25:11;;;;;;;11.68;7.65;;;10.60;99.90;;;10.59;100.00;100093.81;5015664;28;20045;-85
2023/10/23 03:27:37;;;;;;;12.40;7.85;;;10.60;99.90;;;10.51;100.00;100092.25;5015445;28;20068;-86
2023/10/23 03:30:04;;;;;;;10.00;6.72;;;10.60;99.90;;;10.60;100.00;100106.38;5020198;28;20500;-84
2023/10/23 03:32:30;;;;;;;11.73;7.80;;;10.60;99.90;;;10.60;100.00;100112.69;5035289;28;20037;-84
2023/10/23 03:34:57;;;;;;;11.70;7.32;;;10.60;99.90;;;10.59;100.00;100113.75;5022929;28;20504;-84
2023/10/23 03:37:23;;;;;;;11.95;8.05;;;10.60;99.90;;;10.63;100.00;100120.41;5016109;28;20136;-85
2023/10/23 03:39:49;;;;;;;11.10;7.45;;;10.60;99.90;;;10.68;100.00;100127.91;5035326;28;20038;-84
2023/10/23 03:42:16;;;;;;;12.77;7.57;;;10.70;99.90;;;10.68;100.00;100125.19;5028798;28;20075;-85
2023/10/23 03:44:42;;;;;;;10.90;7.45;;;10.70;99.90;;;10.77;100.00;100131.97;5020193;28;20490;-84
2023/10/23 03:47:08;;;;;;;12.57;8.07;;;10.70;99.90;;;10.78;100.00;100130.91;5016239;28;20026;-84
2023/10/23 03:49:34;;;;;;;13.00;8.13;;;10.80;99.90;;;10.81;100.00;100135.09;5016846;28;20050;-85
2023/10/23 03:52:00;;;;;;;11.93;7.50;;;10.80;99.90;;;10.85;100.00;100141.75;5014771;28;20042;-85
2023/10/23 03:54:25;;;;;;;10.77;7.47;;;10.80;99.90;;;10.85;100.00;100143.63;5014621;28;20041;-85
2023/10/23 03:56:51;;;;;;;11.52;8.07;;;10.80;99.90;;;10.91;100.00;100145.47;5037861;28;20566;-85
2023/10/23 03:59:17;;;;;;;12.35;7.75;;;10.90;99.90;;;10.90;100.00;100152.78;5019434;28;20041;-85
2023/10/23 04:01:42;;;;;;;13.18;7.75;;;10.90;99.90;;;10.91;100.00;100156.38;5016342;28;20409;-85
2023/10/23 04:04:10;;;;;;;10.45;7.53;;;10.90;99.90;;;10.91;100.00;100156.38;5014323;28;20041;-85
2023/10/23 04:06:39;;;;;;;10.30;7.80;;;10.90;99.90;;;10.89;100.00;100147.59;5020636;28;20052;-85
2023/10/23 04:09:05;;;;;;;9.73;7.03;;;10.90;99.90;;;10.92;100.00;100171.69;5014937;28;20421;-85
2023/10/23 04:11:31;;;;;;;13.43;7.30;;;10.90;99.90;;;10.91;100.00;100178.22;5013392;28;20038;-85
2023/10/23 04:13:57;;;;;;;9.98;6.90;;;10.80;99.90;;;10.91;100.00;100164.56;5022326;28;20050;-85
2023/10/23 04:16:22;;;;;;;11.25;7.30;;;10.80;99.90;;;10.92;100.00;100172.50;5030072;28;20064;-86
2023/10/23 04:18:48;;;;;;;10.32;6.55;;;10.80;99.90;;;10.91;100.00;100172.75;5029038;28;20091;-86
2023/10/23 04:21:14;;;;;;;10.77;6.75;;;10.80;99.90;;;10.91;100.00;100173.56;5036709;28;20038;-85
2023/10/23 04:23:40;;;;;;;10.60;6.85;;;10.80;99.90;;;10.88;100.00;100176.75;5013866;28;20041;-86
2023/10/23 04:26:07;;;;;;;10.93;7.00;;;10.80;99.90;;;10.86;100.00;100180.75;5014989;28;20505;-86
2023/10/23 04:28:34;;;;;;;12.60;7.38;;;10.80;99.90;;;10.86;100.00;100180.75;5018391;28;20034;-85
2023/10/23 04:31:00;;;;;;;9.73;6.57;;;10.80;99.90;;;10.84;100.00;100182.91;5015733;28;20085;-83
2023/10/23 04:33:27;;;;;;;10.95;7.00;;;10.80;99.90;;;10.82;100.00;100174.97;5015017;28;20133;-82
2023/10/23 04:35:58;;;;;;;8.43;6.07;;;10.70;99.90;;;10.78;100.00;100176.47;5014121;28;20825;-82
2023/10/23 04:38:25;;;;;;;9.07;6.65;;;10.70;99.90;;;10.69;100.00;100175.13;5023498;28;20056;-82
2023/10/23 04:40:53;;;;;;;11.73;6.80;;;10.60;99.90;;;10.68;100.00;100181.63;5036666;28;20103;-82
2023/10/23 04:43:19;;;;;;;;;;;10.60;99.90;;;10.58;100.00;100180.28;5018103;28;20485;-82
2023/10/23 04:45:45;;;;;;;12.23;7.35;;;10.50;99.90;;;10.47;100.00;100184.59;5017903;28;19921;-82
2023/10/23 04:48:12;;;;;;;8.60;6.63;;;10.40;99.90;;;10.37;100.00;100184.28;5039409;28;20065;-82
2023/10/23 04:50:39;;;;;;;14.52;7.70;;;10.30;99.90;;;10.35;100.00;100179.03;5013624;28;20034;-83
2023/10/23 04:53:06;;;;;;;11.82;6.95;;;10.30;99.90;;;10.31;100.00;100177.84;5013260;28;20546;-82
2023/10/23 04:55:40;;;;;;;10.50;7.17;;;10.20;99.90;;;10.25;100.00;100175.16;5017711;28;20068;-83
2023/10/23 04:58:07;;;;;;;13.27;7.93;;;10.20;99.90;;;10.20;100.00;100179.41;5026999;28;20397;-82
2023/10/23 05:00:39;;;;;;;10.50;7.63;;;10.20;99.90;;;10.17;100.00;100176.28;5016614;28;20026;-83
2023/10/23 05:03:05;;;;;;;11.93;8.02;;;10.20;99.90;;;10.14;100.00;100185.78;5014524;28;20050;-84
2023/10/23 05:05:31;;;;;;;12.15;8.25;;;10.10;99.90;;;10.14;100.00;100191.22;5014686;28;20205;-88
2023/10/23 05:07:58;;;;;;;12.05;8.60;;;10.10;99.90;;;10.11;100.00;100188.94;5014064;28;20034;-85
2023/10/23 05:10:23;;;;;;;12.57;8.68;;;10.00;99.90;;;10.09;100.00;100180.16;5019532;28;20108;-82
2023/10/23 05:12:49;;;;;;;13.27;8.73;;;10.10;99.90;;;10.06;100.00;100175.16;5018975;28;20042;-87
2023/10/23 05:15:17;;;;;;;14.40;8.52;;;10.00;99.90;;;10.11;100.00;100164.44;5024270;28;20034;-87
2023/10/23 05:17:44;;;;;;;12.18;8.95;;;10.10;99.90;;;10.12;100.00;100162.50;5022134;28;20073;-87
2023/10/23 05:20:10;;;;;;;11.70;8.27;;;10.10;99.90;;;10.17;100.00;100159.94;5027128;28;20488;-86
2023/10/23 05:22:36;;;;;;;12.63;8.40;;;10.10;99.90;;;10.16;100.00;100150.94;5021666;28;20038;-87
2023/10/23 05:25:02;;;;;;;15.35;9.15;;;10.10;99.90;;;10.17;100.00;100151.75;5025401;28;20040;-87
2023/10/23 05:27:28;;;;;;;11.60;8.13;;;10.10;99.90;;;10.02;100.00;100161.16;5014765;28;20505;-86
2023/10/23 05:29:54;;;;;;;11.90;8.38;;;10.00;99.90;;;9.89;100.00;100170.28;5018161;28;20108;-84
2023/10/23 05:32:20;;;;;;;13.68;8.15;;;9.90;99.90;;;9.70;100.00;100180.31;5014279;28;20041;-85
2023/10/23 05:34:46;;;;;;;14.48;8.07;;;9.70;99.90;;;9.63;100.00;100195.84;5029346;28;21998;-84
2023/10/23 05:37:12;;;;;;;13.38;7.30;;;9.60;99.90;;;9.42;100.00;100189.75;5029390;28;20045;-87
2023/10/23 05:39:38;;;;;;;11.10;6.90;;;9.40;99.90;;;9.25;100.00;100211.19;5014393;28;20068;-84
2023/10/23 05:42:04;;;;;;;17.30;8.35;;;9.20;99.90;;;9.21;100.00;100215.41;5024086;28;20045;-81
2023/10/23 05:44:30;;;;;;;18.85;9.45;;;9.20;99.90;;;9.28;100.00;100218.09;5017515;28;20041;-81
2023/10/23 05:46:56;;;;;;;18.80;9.13;;;9.30;99.90;;;9.27;100.00;100209.09;5018288;28;20141;-83
2023/10/23 05:49:22;;;;;;;19.98;10.73;;;9.30;99.90;;;9.31;100.00;100198.59;5013663;28;20038;-83
2023/10/23 05:51:48;;;;;;;19.90;11.07;;;9.30;99.90;;;9.30;100.00;100203.22;5013900;28;20084;-84
2023/10/23 05:54:16;;;;;;;17.63;10.40;;;9.30;99.90;;;9.26;100.00;100201.97;5019411;28;20235;-83
2023/10/23 05:56:43;;;;;;;20.05;10.73;;;9.30;99.90;;;9.25;100.00;100188.59;5012251;28;20034;-83
2023/10/23 05:59:09;;;;;;;19.40;11.20;;;9.40;99.90;;;9.41;100.00;100198.13;5013832;28;20040;-83
2023/10/23 06:01:36;;;;;;;19.13;10.60;;;9.40;99.90;;;9.39;100.00;100194.78;5014057;28;20025;-83
2023/10/23 06:04:04;;;;;;;20.17;11.13;;;9.40;99.90;;;9.33;100.00;100189.19;5018393;28;20070;-83
2023/10/23 06:06:30;;;;;;;19.08;10.52;;;9.40;99.90;;;9.27;100.00;100181.88;5013396;28;20283;-83
2023/10/23 06:08:56;;;;;;;19.08;11.18;;;9.40;99.90;;;9.29;100.00;100189.81;5016965;28;20042;-83
2023/10/23 06:11:23;;;;;;;23.42;12.13;;;9.40;99.90;;;9.32;100.00;100198.41;5013444;28;20483;-83
2023/10/23 06:13:49;;;;;;;16.42;10.05;;;9.40;99.90;;;9.37;100.00;100196.91;5013178;28;20048;-83
2023/10/23 06:16:15;;;;;;;19.77;11.32;;;9.40;99.90;;;9.39;100.00;100192.88;5012954;28;20402;-83
2023/10/23 06:18:41;;;;;;;20.48;11.10;;;9.40;99.90;;;9.40;100.00;100185.56;5028866;28;20036;-83
2023/10/23 06:21:07;;;;;;;20.00;11.35;;;9.40;99.90;;;9.44;100.00;100181.34;5012635;28;20587;-83
2023/10/23 06:23:37;;;;;;;17.42;10.40;;;9.50;99.90;;;9.52;100.00;100183.78;5014429;28;20030;-82
2023/10/23 06:26:04;;;;;;;19.58;10.45;;;9.50;99.90;;;9.53;100.00;100180.00;5015326;28;20048;-83
2023/10/23 06:28:31;;;;;;;16.58;10.15;;;9.50;99.90;;;9.57;100.00;100185.84;5023014;28;20105;-84
2023/10/23 06:31:06;;;;;;;19.67;10.73;;;9.50;99.90;;;9.56;100.00;100181.47;5028309;28;20151;-84
2023/10/23 06:33:32;;;;;;;19.58;11.38;;;9.60;99.90;;;9.57;100.00;100164.06;5018620;28;20727;-84
2023/10/23 06:36:03;;;;;;;18.90;10.43;;;9.60;99.90;;;9.68;100.00;100176.13;5026584;28;20056;-84
2023/10/23 06:38:29;;;;;;;24.27;11.95;;;9.70;99.90;;;9.75;100.00;100185.06;5021593;28;20505;-83
2023/10/23 06:40:55;;;;;;;20.60;11.25;;;9.70;99.90;;;9.77;100.00;100170.19;5018660;28;20068;-85
2023/10/23 06:43:21;;;;;;;20.77;11.07;;;9.80;99.90;;;9.83;100.00;100176.63;5035555;28;20041;-85
2023/10/23 06:45:46;;;;;;;19.20;11.60;;;9.80;99.90;;;9.87;100.00;100185.19;5022786;28;20033;-85
2023/10/23 06:48:15;;;;;;;19.52;10.95;;;9.90;99.90;;;9.92;100.00;100183.47;5028627;28;20030;-85
2023/10/23 06:50:51;;;;;;;19.17;10.63;;;9.90;99.90;;;9.96;100.00;100183.00;5023862;28;20048;-84
2023/10/23 06:53:17;;;;;;;19.05;11.20;;;9.90;99.90;;;10.02;100.00;100193.00;5032774;28;20053;-85
2023/10/23 06:56:01;;;;;;;20.95;11.52;;;10.00;99.90;;;10.07;100.00;100185.00;5034289;28;20032;-85
2023/10/23 06:58:26;;;;;;;19.13;11.68;;;10.10;99.90;;;10.09;100.00;100188.34;5017168;28;20045;-85
2023/10/23 07:00:52;;;;;;;21.67;11.70;;;10.10;99.90;;;10.14;100.00;100193.94;5036369;28;20477;-85
2023/10/23 07:03:18;;;;;;;19.40;11.40;;;10.10;99.90;;;10.15;100.00;100186.59;5016573;28;20079;-85
2023/10/23 07:05:44;;;;;;;20.13;11.85;;;10.20;99.90;;;10.26;100.00;100204.94;5022655;28;20034;-85
2023/10/23 07:08:09;;;;;;;23.00;12.68;;;10.30;99.90;;;10.29;100.00;100199.03;5032636;28;20049;-84
2023/10/23 07:10:36;;;;;;;26.00;11.82;;;10.30;99.90;;;10.30;100.00;100206.16;5017831;28;20038;-85
2023/10/23 07:13:02;;;;;;;19.65;11.10;;;10.30;99.90;;;10.34;100.00;100214.69;5021644;28;20385;-85
2023/10/23 07:15:32;;;;;;;18.67;11.57;;;10.30;99.90;;;10.34;100.00;100201.06;5025701;28;20091;-82
2023/10/23 07:17:58;;;;;;;21.05;11.88;;;10.40;99.90;;;10.44;100.00;100206.03;5017044;28;20609;-82
2023/10/23 07:20:24;;;;;;;20.23;11.38;;;10.40;99.90;;;10.48;100.00;100199.09;5014408;28;20045;-82
2023/10/23 07:22:49;;;;;;;20.20;11.75;;;10.50;99.90;;;10.52;100.00;100203.03;5031557;28;20033;-82
2023/10/23 07:25:15;;;;;;;20.70;12.07;;;10.50;99.90;;;10.61;100.00;100198.09;5016534;28;20045;-83
2023/10/23 07:27:41;;;;;;;21.45;11.70;;;10.60;99.90;;;10.63;100.00;100198.72;5021786;28;20049;-83
2023/10/23 07:30:07;;;;;;;18.13;11.55;;;10.60;99.90;;;10.59;100.00;100203.78;5032106;28;20041;-82
2023/10/23 07:32:36;;;;;;;18.83;11.70;;;10.60;99.90;;;10.66;100.00;100209.16;5044443;28;20148;-81
2023/10/23 07:35:08;;;;;;;19.42;11.57;;;10.60;99.90;;;10.84;100.00;100210.19;5018751;28;20508;-83
2023/10/23 07:37:34;;;;;;;18.35;11.82;;;10.70;99.90;;;10.98;100.00;100208.97;5015509;28;20512;-84
2023/10/23 07:40:04;;;;;;;21.17;11.15;;;10.90;99.90;;;10.98;100.00;100232.69;5020661;28;20041;-84
2023/10/23 07:42:31;;;;;;;16.73;11.20;;;10.90;99.90;;;11.00;100.00;100253.25;5019366;28;20045;-88
2023/10/23 07:44:57;;;;;;;18.20;11.43;;;10.90;99.90;;;11.00;100.00;100285.16;5030837;28;20029;-91
2023/10/23 07:47:22;;;;;;;16.83;11.88;;;10.90;99.90;;;11.03;100.00;100307.38;5028606;28;20465;-89
2023/10/23 07:49:48;;;;;;;17.83;11.80;;;10.90;99.90;;;11.00;100.00;100324.19;5029267;28;20048;-87
2023/10/23 07:52:14;;;;;;;16.38;11.55;;;10.90;99.90;;;11.15;100.00;100345.66;5034398;28;20038;-86
2023/10/23 07:54:39;;;;;;;18.83;12.45;;;11.00;99.90;;;11.25;100.00;100342.41;5018546;28;20105;-85
2023/10/23 07:57:05;;;;;;;17.55;10.82;;;11.10;99.90;;;11.54;100.00;100360.94;5034044;28;20042;-84
2023/10/23 07:59:32;;;;;;;18.63;12.52;;;11.30;99.90;;;11.70;100.00;100367.69;5020033;28;20038;-85
2023/10/23 08:01:58;;;;;;;16.73;12.07;;;11.50;99.90;;;11.83;100.00;100392.09;5026610;28;20124;-84
2023/10/23 08:04:24;;;;;;;21.88;13.10;;;11.60;99.90;;;11.93;100.00;100403.31;5028223;28;20117;-87
2023/10/23 08:06:49;;;;;;;19.88;13.68;;;11.70;99.90;;;12.06;100.00;100412.41;5024094;28;20037;-89
2023/10/23 08:09:15;;;;;;;27.30;17.48;;;11.90;99.90;;;12.04;100.00;100431.75;5030021;28;20509;-86
2023/10/23 08:11:41;;;;;;;22.83;15.52;;;11.90;99.90;;;12.11;100.00;100453.56;5030207;28;20057;-85
2023/10/23 08:14:07;;;;;;;25.90;16.92;;;12.00;99.90;;;12.30;100.00;100459.78;5022885;28;20041;-88
2023/10/23 08:16:32;;;;;;;24.88;15.93;;;12.10;99.90;;;12.54;100.00;100461.78;5020836;28;20223;-86
2023/10/23 08:18:58;;;;;;;35.88;19.15;;;12.30;99.90;;;12.61;100.00;100489.88;5014765;28;20394;-86
2023/10/23 08:21:26;;;;;;;26.60;17.60;;;12.40;99.90;;;12.83;100.00;100497.53;5030169;28;20041;-86
2023/10/23 08:23:56;;;;;;;31.58;18.13;;;12.60;99.90;;;12.97;100.00;100517.31;5018459;28;20052;-86
2023/10/23 08:26:22;;;;;;;30.98;19.67;;;12.80;99.90;;;13.03;100.00;100543.75;5015917;28;20402;-86
2023/10/23 08:28:49;;;;;;;29.40;20.05;;;12.80;99.90;;;12.65;100.00;100565.81;5013976;28;20599;-85
2023/10/23 08:31:16;;;;;;;29.55;19.48;;;12.80;99.90;;;12.71;100.00;100582.34;5014463;28;20037;-85
2023/10/23 08:33:42;;;;;;;28.38;20.10;;;12.90;99.90;;;12.57;100.00;100606.34;5014483;28;20025;-86
2023/10/23 08:36:08;;;;;;;27.17;18.92;;;12.80;99.90;;;12.89;100.00;100601.47;5015960;28;20600;-86
2023/10/23 08:38:34;;;;;;;25.80;18.13;;;12.90;99.90;;;13.11;100.00;100614.59;5020277;28;20490;-85
2023/10/23 08:41:03;;;;;;;27.40;19.20;;;13.00;99.90;;;13.28;100.00;100627.63;5015380;28;20099;-85
2023/10/23 08:43:30;;;;;;;26.35;17.67;;;13.20;99.90;;;13.37;100.00;100635.28;5023781;28;20041;-86
2023/10/23 08:46:00;;;;;;;29.52;18.00;;;13.30;99.90;;;13.24;100.00;100632.72;5023389;28;20034;-85
2023/10/23 08:48:27;;;;;;;23.38;17.83;;;13.20;99.90;;;13.27;100.00;100643.25;5031795;28;20045;-84
2023/10/23 08:50:56;;;;;;;23.70;15.48;;;13.20;99.90;;;13.23;100.00;100644.75;5028340;28;20052;-85
2023/10/23 08:53:31;;;;;;;22.30;14.88;;;13.20;99.90;;;13.13;100.00;100653.56;5024591;28;20037;-85
2023/10/23 08:56:02;;;;;;;16.38;10.88;;;13.20;99.90;;;13.04;100.00;100652.22;5023370;28;20393;-87
2023/10/23 08:58:31;;;;;;;17.75;10.55;;;13.00;99.90;;;13.07;100.00;100641.66;5033338;28;20033;-89
2023/10/23 09:00:57;;;;;;;20.42;11.73;;;13.00;99.90;;;13.12;100.00;100631.88;5025826;28;20495;-84
2023/10/23 09:03:25;;;;;;;19.05;12.55;;;13.00;99.90;;;13.31;100.00;100630.75;5019826;28;20029;-89
2023/10/23 09:05:51;;;;;;;18.25;12.20;;;13.20;99.90;;;13.64;100.00;100637.59;5026895;28;20037;-92
2023/10/23 09:08:18;;;;;;;16.60;12.80;;;13.40;99.90;;;13.88;100.00;100648.56;5022970;28;20068;-91
2023/10/23 09:11:06;;;;;;;15.57;13.00;;;13.60;99.90;;;14.14;100.00;100646.41;5039012;28;20029;-89
2023/10/23 09:13:39;;;;;;;21.30;14.73;;;;;;;14.44;100.00;100650.03;5024818;28;20497;-84
2023/10/23 09:16:06;;;;;;;19.13;14.77;;;;;;;14.89;100.00;100660.28;5013550;28;20038;-84
2023/10/23 09:18:34;;;;;;;18.02;14.38;;;;;;;15.44;100.00;100671.69;5018450;28;20080;-84
2023/10/23 09:21:01;;;;;;;16.95;13.60;;;;;;;15.83;100.00;100679.19;5029350;28;20048;-83
2023/10/23 09:23:30;;;;;;;18.80;14.07;;;;;;;16.34;100.00;100687.41;5013672;28;20032;-85
2023/10/23 09:25:59;;;;;;;15.18;12.30;;;;;;;16.69;100.00;100699.13;5013821;28;20042;-84
2023/10/23 09:28:29;;;;;;;14.73;12.10;;;;;;;16.88;100.00;100693.28;5022314;28;20033;-84
2023/10/23 09:30:56;;;;;;;13.85;10.70;;;;;;;17.06;100.00;100701.25;5017888;28;20049;-87
2023/10/23 09:33:22;;;;;;;12.95;10.85;;;;;;;17.01;100.00;100694.84;5014665;28;20088;-91
2023/10/23 09:35:49;;;;;;;12.93;9.80;;;;;;;17.11;100.00;100693.03;5002514;28;20050;-86
2023/10/23 09:38:16;;;;;;;12.45;10.57;;;;;;;17.19;100.00;100690.88;5018606;28;20060;-89
2023/10/23 09:40:44;;;;;;;11.02;9.50;;;;;;;17.52;100.00;100694.53;5031889;28;20056;-89
2023/10/23 09:43:12;;;;;;;12.15;9.30;;;;;;;17.88;100.00;100683.75;5013078;28;20516;-88
2023/10/23 09:45:40;;;;;;;11.43;8.82;;;;;;;18.71;100.00;100675.13;5029586;28;20037;-88
2023/10/23 09:48:07;;;;;;;;;;;;;;;19.56;100.00;100687.72;5030987;28;20469;-87
2023/10/23 09:50:34;;;;;;;8.05;6.97;;;;;;;20.84;100.00;100665.56;5027456;28;19917;-87
2023/10/23 09:53:03;;;;;;;11.45;7.30;;;;;;;20.67;100.00;100675.03;5020549;28;20457;-87
2023/10/23 09:55:32;;;;;;;8.82;7.32;;;;;;;21.52;92.57;100680.63;5021994;28;20037;-88
2023/10/23 09:58:05;;;;;;;7.43;6.15;;;;;;;23.51;77.98;100667.72;5024679;28;20044;-88
2023/10/23 10:00:33;;;;;;;7.25;6.35;;;;;;;25.07;67.62;100667.47;5027246;28;20077;-88
2023/10/23 10:03:02;;;;;;;9.43;6.47;;;;;;;24.81;64.08;100654.91;5035386;28;20104;-87
2023/10/23 10:05:43;;;;;;;10.57;6.68;;;;;;;25.45;57.85;100652.31;5031331;28;20037;-88
2023/10/23 10:08:18;;;;;;;8.23;6.40;;;;;;;25.71;58.29;100658.09;5033440;28;20029;-89
2023/10/23 10:10:44;;;;;;;10.65;6.80;;;;;;;25.34;58.64;100660.94;5031203;28;20048;-88